sensor_id;sensor_type;location;lat;lon;timestamp;pressure;altitude;pressure_sealevel;temperature;humidity
78431;BME280;67727;50.236;22.452;2023-05-10T00:01:50;100301.68;;;4.17;62.04
78431;BME280;67727;50.236;22.452;2023-05-10T00:04:17;100297.67;;;4.17;62.09
78431;BME280;67727;50.236;22.452;2023-05-10T00:06:44;100299.30;;;4.16;62.29
78431;BME280;67727;50.236;22.452;2023-05-10T00:09:10;100294.25;;;4.16;62.66
78431;BME280;67727;50.236;22.452;2023-05-10T00:11:37;100293.40;;;4.13;62.63
78431;BME280;67727;50.236;22.452;2023-05-10T00:14:04;100293.98;;;4.10;62.82
78431;BME280;67727;50.236;22.452;2023-05-10T00:16:31;100290.23;;;4.06;62.90
78431;BME280;67727;50.236;22.452;2023-05-10T00:18:58;100290.62;;;4.04;62.88
78431;BME280;67727;50.236;22.452;2023-05-10T00:21:25;100286.91;;;4.00;63.09
78431;BME280;67727;50.236;22.452;2023-05-10T00:23:51;100288.97;;;3.96;63.11
78431;BME280;67727;50.236;22.452;2023-05-10T00:26:18;100290.84;;;3.92;63.72
78431;BME280;67727;50.236;22.452;2023-05-10T00:28:45;100287.54;;;3.88;63.94
78431;BME280;67727;50.236;22.452;2023-05-10T00:31:12;100285.89;;;3.82;64.41
78431;BME280;67727;50.236;22.452;2023-05-10T00:33:39;100289.77;;;3.77;64.21
78431;BME280;67727;50.236;22.452;2023-05-10T00:36:06;100298.20;;;3.72;64.37
78431;BME280;67727;50.236;22.452;2023-05-10T00:38:34;100292.98;;;3.65;64.31
78431;BME280;67727;50.236;22.452;2023-05-10T00:41:00;100291.71;;;3.58;64.91
78431;BME280;67727;50.236;22.452;2023-05-10T00:43:27;100290.16;;;3.51;64.95
78431;BME280;67727;50.236;22.452;2023-05-10T00:45:54;100287.11;;;3.45;64.94
78431;BME280;67727;50.236;22.452;2023-05-10T00:48:21;100286.25;;;3.41;64.77
78431;BME280;67727;50.236;22.452;2023-05-10T00:50:49;100287.61;;;3.39;64.85
78431;BME280;67727;50.236;22.452;2023-05-10T00:53:15;100285.67;;;3.39;64.89
78431;BME280;67727;50.236;22.452;2023-05-10T00:55:43;100286.44;;;3.40;65.53
78431;BME280;67727;50.236;22.452;2023-05-10T00:58:11;100284.13;;;3.41;65.26
78431;BME280;67727;50.236;22.452;2023-05-10T01:00:38;100281.17;;;3.41;65.57
78431;BME280;67727;50.236;22.452;2023-05-10T01:03:08;100280.90;;;3.40;65.66
78431;BME280;67727;50.236;22.452;2023-05-10T01:05:34;100280.75;;;3.37;65.66
78431;BME280;67727;50.236;22.452;2023-05-10T01:08:01;100279.27;;;3.34;65.36
78431;BME280;67727;50.236;22.452;2023-05-10T01:10:30;100276.05;;;3.30;65.18
78431;BME280;67727;50.236;22.452;2023-05-10T01:12:58;100273.57;;;3.28;64.91
78431;BME280;67727;50.236;22.452;2023-05-10T01:15:26;100272.33;;;3.26;64.66
78431;BME280;67727;50.236;22.452;2023-05-10T01:17:53;100272.98;;;3.24;64.67
78431;BME280;67727;50.236;22.452;2023-05-10T01:20:20;100269.48;;;3.22;64.87
78431;BME280;67727;50.236;22.452;2023-05-10T01:26:16;100270.70;;;3.15;65.03
78431;BME280;67727;50.236;22.452;2023-05-10T01:31:58;100270.70;;;3.11;65.24
78431;BME280;67727;50.236;22.452;2023-05-10T01:34:36;100269.66;;;3.08;65.31
78431;BME280;67727;50.236;22.452;2023-05-10T01:37:09;100266.75;;;3.08;65.25
78431;BME280;67727;50.236;22.452;2023-05-10T01:40:00;100267.14;;;3.07;64.90
78431;BME280;67727;50.236;22.452;2023-05-10T01:42:34;100264.45;;;3.06;64.69
78431;BME280;67727;50.236;22.452;2023-05-10T01:47:42;100261.35;;;3.00;64.77
78431;BME280;67727;50.236;22.452;2023-05-10T01:50:18;100257.93;;;2.97;64.90
78431;BME280;67727;50.236;22.452;2023-05-10T01:52:57;100260.60;;;2.94;65.49
78431;BME280;67727;50.236;22.452;2023-05-10T01:55:30;100257.55;;;2.93;65.68
78431;BME280;67727;50.236;22.452;2023-05-10T01:58:04;100254.55;;;2.93;65.82
78431;BME280;67727;50.236;22.452;2023-05-10T02:00:33;100259.15;;;2.95;65.66
78431;BME280;67727;50.236;22.452;2023-05-10T02:03:05;100255.45;;;2.95;65.52
78431;BME280;67727;50.236;22.452;2023-05-10T02:05:32;100257.60;;;2.97;65.77
78431;BME280;67727;50.236;22.452;2023-05-10T02:07:59;100255.90;;;2.96;66.06
78431;BME280;67727;50.236;22.452;2023-05-10T02:10:28;100254.64;;;2.94;66.10
78431;BME280;67727;50.236;22.452;2023-05-10T02:12:58;100252.33;;;2.90;66.33
78431;BME280;67727;50.236;22.452;2023-05-10T02:15:27;100252.77;;;2.87;66.32
78431;BME280;67727;50.236;22.452;2023-05-10T02:17:55;100251.05;;;2.81;66.59
78431;BME280;67727;50.236;22.452;2023-05-10T02:20:24;100246.64;;;2.78;66.93
78431;BME280;67727;50.236;22.452;2023-05-10T02:22:54;100246.88;;;2.72;66.63
78431;BME280;67727;50.236;22.452;2023-05-10T02:25:23;100247.76;;;2.67;66.65
78431;BME280;67727;50.236;22.452;2023-05-10T02:27:54;100246.69;;;2.62;66.32
78431;BME280;67727;50.236;22.452;2023-05-10T02:30:23;100247.68;;;2.59;66.88
78431;BME280;67727;50.236;22.452;2023-05-10T02:32:51;100246.20;;;2.55;66.83
78431;BME280;67727;50.236;22.452;2023-05-10T02:35:18;100245.09;;;2.51;67.17
78431;BME280;67727;50.236;22.452;2023-05-10T02:37:46;100244.59;;;2.48;67.09
78431;BME280;67727;50.236;22.452;2023-05-10T02:40:15;100244.27;;;2.48;67.24
78431;BME280;67727;50.236;22.452;2023-05-10T02:42:44;100246.10;;;2.49;67.10
78431;BME280;67727;50.236;22.452;2023-05-10T02:45:13;100250.62;;;2.52;67.36
78431;BME280;67727;50.236;22.452;2023-05-10T02:47:41;100247.15;;;2.54;67.25
78431;BME280;67727;50.236;22.452;2023-05-10T02:50:09;100250.30;;;2.56;67.42
78431;BME280;67727;50.236;22.452;2023-05-10T02:52:41;100250.36;;;2.58;67.30
78431;BME280;67727;50.236;22.452;2023-05-10T02:55:12;100248.28;;;2.58;67.35
78431;BME280;67727;50.236;22.452;2023-05-10T02:57:46;100248.02;;;2.57;67.46
78431;BME280;67727;50.236;22.452;2023-05-10T03:00:15;100249.91;;;2.54;67.19
78431;BME280;67727;50.236;22.452;2023-05-10T03:02:42;100250.99;;;2.52;67.20
78431;BME280;67727;50.236;22.452;2023-05-10T03:05:08;100250.95;;;2.50;67.57
78431;BME280;67727;50.236;22.452;2023-05-10T03:07:36;100248.19;;;2.47;67.42
78431;BME280;67727;50.236;22.452;2023-05-10T03:10:03;100249.42;;;2.44;67.24
78431;BME280;67727;50.236;22.452;2023-05-10T03:15:59;100249.08;;;2.41;67.68
78431;BME280;67727;50.236;22.452;2023-05-10T03:20:38;100245.20;;;2.42;67.70
78431;BME280;67727;50.236;22.452;2023-05-10T03:23:13;100243.80;;;2.42;67.72
78431;BME280;67727;50.236;22.452;2023-05-10T03:25:46;100238.33;;;2.43;67.62
78431;BME280;67727;50.236;22.452;2023-05-10T03:28:17;100239.46;;;2.44;67.43
78431;BME280;67727;50.236;22.452;2023-05-10T03:30:45;100241.15;;;2.48;67.49
78431;BME280;67727;50.236;22.452;2023-05-10T03:33:12;100242.70;;;2.53;67.73
78431;BME280;67727;50.236;22.452;2023-05-10T03:35:40;100241.18;;;2.59;67.67
78431;BME280;67727;50.236;22.452;2023-05-10T03:38:07;100237.86;;;2.66;67.55
78431;BME280;67727;50.236;22.452;2023-05-10T03:40:34;100236.24;;;2.74;67.75
78431;BME280;67727;50.236;22.452;2023-05-10T03:43:01;100237.30;;;2.81;67.76
78431;BME280;67727;50.236;22.452;2023-05-10T03:45:27;100237.04;;;2.87;67.81
78431;BME280;67727;50.236;22.452;2023-05-10T03:47:54;100235.03;;;2.92;68.08
78431;BME280;67727;50.236;22.452;2023-05-10T03:50:21;100234.09;;;2.98;68.34
78431;BME280;67727;50.236;22.452;2023-05-10T03:52:48;100235.02;;;3.05;68.38
78431;BME280;67727;50.236;22.452;2023-05-10T03:55:15;100229.50;;;3.10;68.67
78431;BME280;67727;50.236;22.452;2023-05-10T03:57:42;100230.73;;;3.17;68.68
78431;BME280;67727;50.236;22.452;2023-05-10T04:00:10;100232.94;;;3.27;68.49
78431;BME280;67727;50.236;22.452;2023-05-10T04:02:37;100228.55;;;3.41;68.96
78431;BME280;67727;50.236;22.452;2023-05-10T04:05:04;100233.22;;;3.60;68.66
78431;BME280;67727;50.236;22.452;2023-05-10T04:07:31;100228.42;;;3.79;68.50
78431;BME280;67727;50.236;22.452;2023-05-10T04:09:57;100230.87;;;3.99;68.28
78431;BME280;67727;50.236;22.452;2023-05-10T04:12:24;100232.58;;;4.22;67.92
78431;BME280;67727;50.236;22.452;2023-05-10T04:14:51;100235.85;;;4.44;67.80
78431;BME280;67727;50.236;22.452;2023-05-10T04:17:18;100237.52;;;4.70;67.99
78431;BME280;67727;50.236;22.452;2023-05-10T04:19:45;100237.54;;;5.02;67.55
78431;BME280;67727;50.236;22.452;2023-05-10T04:22:11;100246.34;;;5.31;66.50
78431;BME280;67727;50.236;22.452;2023-05-10T04:24:38;100245.15;;;5.55;65.65
78431;BME280;67727;50.236;22.452;2023-05-10T04:27:05;100240.44;;;5.77;65.27
78431;BME280;67727;50.236;22.452;2023-05-10T04:29:32;100243.52;;;5.96;64.00
78431;BME280;67727;50.236;22.452;2023-05-10T04:31:59;100243.88;;;6.09;63.65
78431;BME280;67727;50.236;22.452;2023-05-10T04:34:25;100243.41;;;6.20;63.24
78431;BME280;67727;50.236;22.452;2023-05-10T04:36:52;100244.48;;;6.30;62.94
78431;BME280;67727;50.236;22.452;2023-05-10T04:39:19;100246.47;;;6.39;62.59
78431;BME280;67727;50.236;22.452;2023-05-10T04:41:46;100245.97;;;6.44;62.02
78431;BME280;67727;50.236;22.452;2023-05-10T04:44:13;100247.51;;;6.53;62.67
78431;BME280;67727;50.236;22.452;2023-05-10T04:46:39;100244.05;;;6.68;62.37
78431;BME280;67727;50.236;22.452;2023-05-10T04:49:06;100242.13;;;6.79;62.10
78431;BME280;67727;50.236;22.452;2023-05-10T04:51:33;100241.36;;;6.90;61.92
78431;BME280;67727;50.236;22.452;2023-05-10T04:54:00;100240.42;;;7.04;61.96
78431;BME280;67727;50.236;22.452;2023-05-10T04:56:27;100239.66;;;7.16;61.37
78431;BME280;67727;50.236;22.452;2023-05-10T04:58:53;100238.58;;;7.25;60.90
78431;BME280;67727;50.236;22.452;2023-05-10T05:01:20;100239.55;;;7.34;61.08
78431;BME280;67727;50.236;22.452;2023-05-10T05:03:47;100241.16;;;7.51;61.84
78431;BME280;67727;50.236;22.452;2023-05-10T05:06:14;100241.29;;;7.72;61.40
78431;BME280;67727;50.236;22.452;2023-05-10T05:08:41;100243.24;;;7.88;60.40
78431;BME280;67727;50.236;22.452;2023-05-10T05:11:08;100246.48;;;8.01;60.62
78431;BME280;67727;50.236;22.452;2023-05-10T05:13:35;100241.34;;;8.16;60.60
78431;BME280;67727;50.236;22.452;2023-05-10T05:16:02;100237.37;;;8.29;59.72
78431;BME280;67727;50.236;22.452;2023-05-10T05:18:29;100234.80;;;8.36;59.89
78431;BME280;67727;50.236;22.452;2023-05-10T05:20:56;100241.00;;;8.49;60.10
78431;BME280;67727;50.236;22.452;2023-05-10T05:23:22;100238.02;;;8.66;59.89
78431;BME280;67727;50.236;22.452;2023-05-10T05:25:52;100237.50;;;8.84;59.65
78431;BME280;67727;50.236;22.452;2023-05-10T05:28:20;100236.83;;;9.05;59.75
78431;BME280;67727;50.236;22.452;2023-05-10T05:30:47;100235.27;;;9.22;59.03
78431;BME280;67727;50.236;22.452;2023-05-10T05:33:14;100240.67;;;9.43;58.55
78431;BME280;67727;50.236;22.452;2023-05-10T05:35:42;100240.20;;;9.55;56.85
78431;BME280;67727;50.236;22.452;2023-05-10T05:38:13;100235.88;;;9.60;56.73
78431;BME280;67727;50.236;22.452;2023-05-10T05:40:40;100237.25;;;9.77;57.07
78431;BME280;67727;50.236;22.452;2023-05-10T05:43:07;100242.15;;;9.89;56.52
78431;BME280;67727;50.236;22.452;2023-05-10T05:45:34;100241.13;;;10.01;56.20
78431;BME280;67727;50.236;22.452;2023-05-10T05:48:01;100239.77;;;10.17;55.69
78431;BME280;67727;50.236;22.452;2023-05-10T05:50:28;100240.41;;;10.30;55.63
78431;BME280;67727;50.236;22.452;2023-05-10T05:52:55;100234.71;;;10.42;54.79
78431;BME280;67727;50.236;22.452;2023-05-10T05:55:23;100237.29;;;10.57;54.82
78431;BME280;67727;50.236;22.452;2023-05-10T05:57:51;100236.45;;;10.74;55.79
78431;BME280;67727;50.236;22.452;2023-05-10T06:00:17;100237.36;;;11.03;56.21
78431;BME280;67727;50.236;22.452;2023-05-10T06:02:44;100236.98;;;11.27;53.65
78431;BME280;67727;50.236;22.452;2023-05-10T06:05:11;100242.05;;;11.39;52.70
78431;BME280;67727;50.236;22.452;2023-05-10T06:07:38;100236.42;;;11.49;52.03
78431;BME280;67727;50.236;22.452;2023-05-10T06:10:06;100236.71;;;11.64;52.58
78431;BME280;67727;50.236;22.452;2023-05-10T06:12:33;100233.27;;;11.81;52.43
78431;BME280;67727;50.236;22.452;2023-05-10T06:15:00;100232.09;;;12.05;52.61
78431;BME280;67727;50.236;22.452;2023-05-10T06:17:27;100231.13;;;12.34;51.93
78431;BME280;67727;50.236;22.452;2023-05-10T06:19:54;100233.84;;;12.57;50.16
78431;BME280;67727;50.236;22.452;2023-05-10T06:22:21;100232.80;;;12.69;49.99
78431;BME280;67727;50.236;22.452;2023-05-10T06:24:51;100234.89;;;12.86;50.20
78431;BME280;67727;50.236;22.452;2023-05-10T06:27:17;100232.62;;;13.08;50.10
78431;BME280;67727;50.236;22.452;2023-05-10T06:29:44;100239.73;;;13.31;49.56
78431;BME280;67727;50.236;22.452;2023-05-10T06:32:11;100240.94;;;13.55;48.90
78431;BME280;67727;50.236;22.452;2023-05-10T06:34:38;100242.69;;;13.75;48.35
78431;BME280;67727;50.236;22.452;2023-05-10T06:37:05;100239.36;;;13.95;47.64
78431;BME280;67727;50.236;22.452;2023-05-10T06:39:31;100241.33;;;14.14;47.77
78431;BME280;67727;50.236;22.452;2023-05-10T06:41:58;100243.33;;;14.34;47.05
78431;BME280;67727;50.236;22.452;2023-05-10T06:44:25;100238.41;;;14.50;46.57
78431;BME280;67727;50.236;22.452;2023-05-10T06:46:52;100244.30;;;14.59;45.44
78431;BME280;67727;50.236;22.452;2023-05-10T06:49:20;100237.63;;;14.72;46.66
78431;BME280;67727;50.236;22.452;2023-05-10T06:51:47;100234.76;;;14.86;45.24
78431;BME280;67727;50.236;22.452;2023-05-10T06:54:14;100236.79;;;14.96;44.89
78431;BME280;67727;50.236;22.452;2023-05-10T06:56:41;100233.63;;;14.98;44.30
78431;BME280;67727;50.236;22.452;2023-05-10T06:59:08;100236.83;;;15.11;45.34
78431;BME280;67727;50.236;22.452;2023-05-10T07:01:35;100239.09;;;15.31;45.09
78431;BME280;67727;50.236;22.452;2023-05-10T07:04:02;100236.45;;;15.46;43.93
78431;BME280;67727;50.236;22.452;2023-05-10T07:06:28;100236.98;;;15.63;44.46
78431;BME280;67727;50.236;22.452;2023-05-10T07:08:56;100239.52;;;15.79;43.59
78431;BME280;67727;50.236;22.452;2023-05-10T07:11:22;100244.55;;;15.88;42.60
78431;BME280;67727;50.236;22.452;2023-05-10T07:13:49;100242.25;;;15.89;42.17
78431;BME280;67727;50.236;22.452;2023-05-10T07:16:16;100243.14;;;16.03;43.59
78431;BME280;67727;50.236;22.452;2023-05-10T07:18:43;100239.08;;;16.22;43.29
78431;BME280;67727;50.236;22.452;2023-05-10T07:21:10;100240.91;;;16.41;43.17
78431;BME280;67727;50.236;22.452;2023-05-10T07:23:37;100239.20;;;16.64;42.61
78431;BME280;67727;50.236;22.452;2023-05-10T07:26:04;100238.80;;;16.78;39.99
78431;BME280;67727;50.236;22.452;2023-05-10T07:28:33;100234.98;;;16.69;39.14
78431;BME280;67727;50.236;22.452;2023-05-10T07:31:00;100232.98;;;16.68;39.81
78431;BME280;67727;50.236;22.452;2023-05-10T07:33:27;100233.80;;;16.70;39.04
78431;BME280;67727;50.236;22.452;2023-05-10T07:35:54;100232.28;;;16.72;38.39
78431;BME280;67727;50.236;22.452;2023-05-10T07:38:21;100232.95;;;16.65;38.16
78431;BME280;67727;50.236;22.452;2023-05-10T07:40:48;100229.17;;;16.68;38.85
78431;BME280;67727;50.236;22.452;2023-05-10T07:43:14;100230.79;;;16.84;39.06
78431;BME280;67727;50.236;22.452;2023-05-10T07:45:41;100231.50;;;17.00;38.98
78431;BME280;67727;50.236;22.452;2023-05-10T07:48:08;100231.63;;;17.17;37.86
78431;BME280;67727;50.236;22.452;2023-05-10T07:50:35;100226.60;;;17.26;36.71
78431;BME280;67727;50.236;22.452;2023-05-10T07:53:02;100223.51;;;17.31;36.46
78431;BME280;67727;50.236;22.452;2023-05-10T07:55:29;100223.03;;;17.42;37.80
78431;BME280;67727;50.236;22.452;2023-05-10T07:57:56;100224.20;;;17.61;37.03
78431;BME280;67727;50.236;22.452;2023-05-10T08:00:23;100225.73;;;17.74;35.49
78431;BME280;67727;50.236;22.452;2023-05-10T08:02:50;100225.79;;;17.57;32.39
78431;BME280;67727;50.236;22.452;2023-05-10T08:05:17;100219.30;;;17.34;33.82
78431;BME280;67727;50.236;22.452;2023-05-10T08:07:43;100220.36;;;17.34;35.51
78431;BME280;67727;50.236;22.452;2023-05-10T08:10:10;100223.66;;;17.33;33.69
78431;BME280;67727;50.236;22.452;2023-05-10T08:12:38;100224.38;;;17.24;34.05
78431;BME280;67727;50.236;22.452;2023-05-10T08:15:05;100222.94;;;17.24;33.87
78431;BME280;67727;50.236;22.452;2023-05-10T08:17:33;100218.95;;;17.36;35.29
78431;BME280;67727;50.236;22.452;2023-05-10T08:20:00;100223.80;;;17.55;35.56
78431;BME280;67727;50.236;22.452;2023-05-10T08:22:26;100223.98;;;17.73;34.65
78431;BME280;67727;50.236;22.452;2023-05-10T08:24:53;100224.39;;;17.82;32.47
78431;BME280;67727;50.236;22.452;2023-05-10T08:27:20;100224.73;;;17.81;33.84
78431;BME280;67727;50.236;22.452;2023-05-10T08:29:47;100224.61;;;17.91;33.81
78431;BME280;67727;50.236;22.452;2023-05-10T08:32:14;100222.58;;;18.04;32.86
78431;BME280;67727;50.236;22.452;2023-05-10T08:34:41;100225.88;;;18.19;33.22
78431;BME280;67727;50.236;22.452;2023-05-10T08:37:07;100220.54;;;18.29;32.08
78431;BME280;67727;50.236;22.452;2023-05-10T08:39:35;100220.09;;;18.27;32.21
78431;BME280;67727;50.236;22.452;2023-05-10T08:42:02;100227.52;;;18.30;31.79
78431;BME280;67727;50.236;22.452;2023-05-10T08:44:35;100228.88;;;18.21;30.67
78431;BME280;67727;50.236;22.452;2023-05-10T08:47:05;100222.70;;;18.06;30.79
78431;BME280;67727;50.236;22.452;2023-05-10T08:49:36;100223.83;;;18.05;31.69
78431;BME280;67727;50.236;22.452;2023-05-10T08:52:05;100222.67;;;18.13;32.46
78431;BME280;67727;50.236;22.452;2023-05-10T08:54:33;100217.25;;;18.26;32.43
78431;BME280;67727;50.236;22.452;2023-05-10T08:57:01;100225.83;;;18.43;32.95
78431;BME280;67727;50.236;22.452;2023-05-10T08:59:27;100217.86;;;18.68;32.73
78431;BME280;67727;50.236;22.452;2023-05-10T09:01:57;100222.02;;;18.84;31.10
78431;BME280;67727;50.236;22.452;2023-05-10T09:04:25;100227.07;;;18.74;29.24
78431;BME280;67727;50.236;22.452;2023-05-10T09:06:52;100228.04;;;18.56;29.78
78431;BME280;67727;50.236;22.452;2023-05-10T09:09:19;100221.89;;;18.41;29.98
78431;BME280;67727;50.236;22.452;2023-05-10T09:11:47;100221.67;;;18.36;31.41
78431;BME280;67727;50.236;22.452;2023-05-10T09:14:14;100222.16;;;18.37;31.36
78431;BME280;67727;50.236;22.452;2023-05-10T09:16:42;100214.65;;;18.33;31.12
78431;BME280;67727;50.236;22.452;2023-05-10T09:19:09;100215.66;;;18.19;30.84
78431;BME280;67727;50.236;22.452;2023-05-10T09:21:37;100213.25;;;18.15;31.30
78431;BME280;67727;50.236;22.452;2023-05-10T09:24:08;100217.39;;;18.19;30.61
78431;BME280;67727;50.236;22.452;2023-05-10T09:26:35;100212.02;;;18.05;30.97
78431;BME280;67727;50.236;22.452;2023-05-10T09:29:03;100207.80;;;18.15;32.45
78431;BME280;67727;50.236;22.452;2023-05-10T09:31:49;100209.77;;;18.36;30.99
78431;BME280;67727;50.236;22.452;2023-05-10T09:34:30;100213.08;;;18.32;30.17
78431;BME280;67727;50.236;22.452;2023-05-10T09:37:00;100203.39;;;18.31;29.66
78431;BME280;67727;50.236;22.452;2023-05-10T09:39:35;100204.92;;;18.32;31.23
78431;BME280;67727;50.236;22.452;2023-05-10T09:42:04;100202.42;;;18.37;31.18
78431;BME280;67727;50.236;22.452;2023-05-10T09:44:32;100192.96;;;18.51;32.15
78431;BME280;67727;50.236;22.452;2023-05-10T09:47:00;100191.31;;;18.70;32.03
78431;BME280;67727;50.236;22.452;2023-05-10T09:49:28;100190.02;;;18.97;32.46
78431;BME280;67727;50.236;22.452;2023-05-10T09:52:01;100189.61;;;19.24;31.65
78431;BME280;67727;50.236;22.452;2023-05-10T09:54:29;100186.96;;;19.42;31.09
78431;BME280;67727;50.236;22.452;2023-05-10T09:56:56;100183.27;;;19.44;29.92
78431;BME280;67727;50.236;22.452;2023-05-10T09:59:25;100182.90;;;19.37;29.10
78431;BME280;67727;50.236;22.452;2023-05-10T10:01:56;100181.30;;;19.20;29.27
78431;BME280;67727;50.236;22.452;2023-05-10T10:04:23;100177.32;;;19.16;30.76
78431;BME280;67727;50.236;22.452;2023-05-10T10:07:03;100174.52;;;19.20;30.02
78431;BME280;67727;50.236;22.452;2023-05-10T10:09:31;100171.04;;;19.25;30.20
78431;BME280;67727;50.236;22.452;2023-05-10T10:12:02;100174.55;;;19.19;30.27
78431;BME280;67727;50.236;22.452;2023-05-10T10:14:29;100173.41;;;19.14;29.21
78431;BME280;67727;50.236;22.452;2023-05-10T10:16:56;100168.02;;;19.15;30.77
78431;BME280;67727;50.236;22.452;2023-05-10T10:19:23;100166.52;;;19.27;30.80
78431;BME280;67727;50.236;22.452;2023-05-10T10:21:50;100155.77;;;19.39;30.65
78431;BME280;67727;50.236;22.452;2023-05-10T10:24:17;100158.73;;;19.40;28.98
78431;BME280;67727;50.236;22.452;2023-05-10T10:26:44;100154.11;;;19.35;29.77
78431;BME280;67727;50.236;22.452;2023-05-10T10:32:09;100145.73;;;19.53;28.71
78431;BME280;67727;50.236;22.452;2023-05-10T10:34:38;100137.73;;;19.41;29.15
78431;BME280;67727;50.236;22.452;2023-05-10T10:37:06;100130.88;;;19.42;29.10
78431;BME280;67727;50.236;22.452;2023-05-10T10:39:33;100139.13;;;19.44;28.68
78431;BME280;67727;50.236;22.452;2023-05-10T10:42:04;100130.48;;;19.53;29.79
78431;BME280;67727;50.236;22.452;2023-05-10T10:44:36;100139.85;;;19.67;29.81
78431;BME280;67727;50.236;22.452;2023-05-10T10:49:43;100129.38;;;19.59;29.39
78431;BME280;67727;50.236;22.452;2023-05-10T10:54:49;100136.14;;;19.52;28.39
78431;BME280;67727;50.236;22.452;2023-05-10T10:57:19;100131.83;;;19.26;28.14
78431;BME280;67727;50.236;22.452;2023-05-10T10:59:46;100127.30;;;18.98;27.99
78431;BME280;67727;50.236;22.452;2023-05-10T11:08:08;100111.87;;;18.86;30.84
78431;BME280;67727;50.236;22.452;2023-05-10T11:10:36;100112.77;;;19.02;28.61
78431;BME280;67727;50.236;22.452;2023-05-10T11:13:07;100111.31;;;19.11;30.52
78431;BME280;67727;50.236;22.452;2023-05-10T11:15:36;100112.73;;;19.21;30.02
78431;BME280;67727;50.236;22.452;2023-05-10T11:20:51;100104.91;;;19.45;29.75
78431;BME280;67727;50.236;22.452;2023-05-10T11:23:18;100103.88;;;19.56;29.49
78431;BME280;67727;50.236;22.452;2023-05-10T11:25:46;100109.23;;;19.60;28.18
78431;BME280;67727;50.236;22.452;2023-05-10T11:28:17;100105.48;;;19.48;27.79
78431;BME280;67727;50.236;22.452;2023-05-10T11:30:44;100103.27;;;19.39;27.46
78431;BME280;67727;50.236;22.452;2023-05-10T11:33:16;100105.89;;;19.18;27.94
78431;BME280;67727;50.236;22.452;2023-05-10T11:35:43;100101.72;;;19.10;29.11
78431;BME280;67727;50.236;22.452;2023-05-10T11:38:11;100100.67;;;19.11;29.51
78431;BME280;67727;50.236;22.452;2023-05-10T11:40:39;100097.83;;;19.14;29.13
78431;BME280;67727;50.236;22.452;2023-05-10T11:43:06;100100.98;;;19.09;29.04
78431;BME280;67727;50.236;22.452;2023-05-10T11:45:35;100093.13;;;19.08;29.01
78431;BME280;67727;50.236;22.452;2023-05-10T11:48:02;100093.77;;;19.12;28.78
78431;BME280;67727;50.236;22.452;2023-05-10T11:50:29;100098.40;;;19.07;28.26
78431;BME280;67727;50.236;22.452;2023-05-10T11:52:56;100091.81;;;18.92;28.61
78431;BME280;67727;50.236;22.452;2023-05-10T11:55:24;100086.30;;;18.81;28.13
78431;BME280;67727;50.236;22.452;2023-05-10T11:57:52;100086.01;;;18.80;28.92
78431;BME280;67727;50.236;22.452;2023-05-10T12:00:20;100083.36;;;18.81;28.97
78431;BME280;67727;50.236;22.452;2023-05-10T12:02:48;100091.13;;;18.86;28.53
78431;BME280;67727;50.236;22.452;2023-05-10T12:05:15;100080.98;;;18.79;27.36
78431;BME280;67727;50.236;22.452;2023-05-10T12:07:43;100079.17;;;18.74;27.72
78431;BME280;67727;50.236;22.452;2023-05-10T12:10:12;100082.52;;;18.75;29.01
78431;BME280;67727;50.236;22.452;2023-05-10T12:12:43;100072.64;;;18.91;29.45
78431;BME280;67727;50.236;22.452;2023-05-10T12:15:23;100070.94;;;19.09;28.84
78431;BME280;67727;50.236;22.452;2023-05-10T12:17:51;100075.22;;;19.14;27.80
78431;BME280;67727;50.236;22.452;2023-05-10T12:20:19;100063.63;;;19.04;27.24
78431;BME280;67727;50.236;22.452;2023-05-10T12:25:14;100065.03;;;18.96;28.77
78431;BME280;67727;50.236;22.452;2023-05-10T12:27:41;100060.58;;;19.04;28.94
78431;BME280;67727;50.236;22.452;2023-05-10T12:30:19;100061.97;;;19.16;29.06
78431;BME280;67727;50.236;22.452;2023-05-10T12:32:46;100057.85;;;19.26;28.74
78431;BME280;67727;50.236;22.452;2023-05-10T12:35:13;100057.34;;;19.35;28.43
78431;BME280;67727;50.236;22.452;2023-05-10T12:37:40;100056.54;;;19.32;26.93
78431;BME280;67727;50.236;22.452;2023-05-10T12:40:08;100050.09;;;19.21;27.80
78431;BME280;67727;50.236;22.452;2023-05-10T12:42:37;100048.66;;;19.24;28.67
78431;BME280;67727;50.236;22.452;2023-05-10T12:45:05;100047.80;;;19.34;28.06
78431;BME280;67727;50.236;22.452;2023-05-10T12:47:33;100047.91;;;19.44;27.87
78431;BME280;67727;50.236;22.452;2023-05-10T12:50:00;100044.23;;;19.54;28.12
78431;BME280;67727;50.236;22.452;2023-05-10T12:52:28;100040.36;;;19.64;27.94
78431;BME280;67727;50.236;22.452;2023-05-10T12:54:55;100040.02;;;19.69;28.16
78431;BME280;67727;50.236;22.452;2023-05-10T12:57:22;100032.41;;;19.71;27.43
78431;BME280;67727;50.236;22.452;2023-05-10T12:59:49;100034.52;;;19.69;26.98
78431;BME280;67727;50.236;22.452;2023-05-10T13:02:16;100024.48;;;19.60;26.46
78431;BME280;67727;50.236;22.452;2023-05-10T13:04:47;100024.12;;;19.59;27.46
78431;BME280;67727;50.236;22.452;2023-05-10T13:07:14;100024.42;;;19.57;25.77
78431;BME280;67727;50.236;22.452;2023-05-10T13:09:41;100030.29;;;19.42;25.65
78431;BME280;67727;50.236;22.452;2023-05-10T13:12:08;100022.92;;;19.24;25.78
78431;BME280;67727;50.236;22.452;2023-05-10T13:14:35;100019.05;;;19.17;27.59
78431;BME280;67727;50.236;22.452;2023-05-10T13:17:02;100014.55;;;19.19;27.55
78431;BME280;67727;50.236;22.452;2023-05-10T13:19:29;100018.13;;;19.24;27.81
78431;BME280;67727;50.236;22.452;2023-05-10T13:21:55;100019.41;;;19.32;28.18
78431;BME280;67727;50.236;22.452;2023-05-10T13:24:22;100022.50;;;19.39;27.70